sensor_id;sensor_type;location;lat;lon;timestamp;P1;durP1;ratioP1;P2;durP2;ratioP2
4311;SDS011;2169;49.086;9.284;2022-07-01T00:00:16;0.63;;;0.63;;
4311;SDS011;2169;49.086;9.284;2022-07-01T00:02:43;1.03;;;0.60;;
4311;SDS011;2169;49.086;9.284;2022-07-01T00:05:10;5.20;;;0.97;;
4311;SDS011;2169;49.086;9.284;2022-07-01T00:07:37;1.07;;;0.97;;
4311;SDS011;2169;49.086;9.284;2022-07-01T00:10:04;1.83;;;0.70;;
4311;SDS011;2169;49.086;9.284;2022-07-01T00:12:31;1.53;;;0.70;;
4311;SDS011;2169;49.086;9.284;2022-07-01T00:14:59;1.07;;;0.60;;
4311;SDS011;2169;49.086;9.284;2022-07-01T00:17:26;3.30;;;1.53;;
4311;SDS011;2169;49.086;9.284;2022-07-01T00:19:53;0.50;;;0.50;;
4311;SDS011;2169;49.086;9.284;2022-07-01T00:22:20;2.20;;;2.00;;
4311;SDS011;2169;49.086;9.284;2022-07-01T00:24:47;0.50;;;0.50;;
4311;SDS011;2169;49.086;9.284;2022-07-01T00:27:14;0.70;;;0.70;;
4311;SDS011;2169;49.086;9.284;2022-07-01T00:29:41;5.03;;;0.60;;
4311;SDS011;2169;49.086;9.284;2022-07-01T00:32:09;1.00;;;0.53;;
4311;SDS011;2169;49.086;9.284;2022-07-01T00:34:36;1.37;;;0.57;;
4311;SDS011;2169;49.086;9.284;2022-07-01T00:37:03;0.93;;;0.83;;
4311;SDS011;2169;49.086;9.284;2022-07-01T00:39:29;0.80;;;0.50;;
4311;SDS011;2169;49.086;9.284;2022-07-01T00:41:59;0.80;;;0.70;;
4311;SDS011;2169;49.086;9.284;2022-07-01T00:44:26;0.90;;;0.77;;
4311;SDS011;2169;49.086;9.284;2022-07-01T00:46:53;7.43;;;0.70;;
4311;SDS011;2169;49.086;9.284;2022-07-01T00:49:22;1.90;;;0.60;;
4311;SDS011;2169;49.086;9.284;2022-07-01T00:51:50;3.03;;;0.50;;
4311;SDS011;2169;49.086;9.284;2022-07-01T00:54:17;3.67;;;0.80;;
4311;SDS011;2169;49.086;9.284;2022-07-01T00:56:45;3.67;;;0.70;;
4311;SDS011;2169;49.086;9.284;2022-07-01T00:59:12;4.93;;;1.20;;
4311;SDS011;2169;49.086;9.284;2022-07-01T01:01:39;0.50;;;0.50;;
4311;SDS011;2169;49.086;9.284;2022-07-01T01:04:06;1.83;;;0.60;;
4311;SDS011;2169;49.086;9.284;2022-07-01T01:06:34;1.17;;;0.70;;
4311;SDS011;2169;49.086;9.284;2022-07-01T01:09:01;7.80;;;0.63;;
4311;SDS011;2169;49.086;9.284;2022-07-01T01:11:29;0.70;;;0.60;;
4311;SDS011;2169;49.086;9.284;2022-07-01T01:13:57;2.73;;;0.60;;
4311;SDS011;2169;49.086;9.284;2022-07-01T01:16:24;0.70;;;0.60;;
4311;SDS011;2169;49.086;9.284;2022-07-01T01:18:51;0.50;;;0.50;;
4311;SDS011;2169;49.086;9.284;2022-07-01T01:21:19;0.90;;;0.67;;
4311;SDS011;2169;49.086;9.284;2022-07-01T01:23:46;0.90;;;0.77;;
4311;SDS011;2169;49.086;9.284;2022-07-01T01:26:16;0.60;;;0.50;;
4311;SDS011;2169;49.086;9.284;2022-07-01T01:28:44;1.60;;;0.60;;
4311;SDS011;2169;49.086;9.284;2022-07-01T01:31:11;2.50;;;0.73;;
4311;SDS011;2169;49.086;9.284;2022-07-01T01:33:38;1.03;;;0.53;;
4311;SDS011;2169;49.086;9.284;2022-07-01T01:36:05;0.63;;;0.63;;
4311;SDS011;2169;49.086;9.284;2022-07-01T01:38:34;1.30;;;0.40;;
4311;SDS011;2169;49.086;9.284;2022-07-01T01:41:02;0.50;;;0.50;;
4311;SDS011;2169;49.086;9.284;2022-07-01T01:43:28;2.10;;;0.60;;
4311;SDS011;2169;49.086;9.284;2022-07-01T01:45:59;0.70;;;0.50;;
4311;SDS011;2169;49.086;9.284;2022-07-01T01:48:26;0.60;;;0.53;;
4311;SDS011;2169;49.086;9.284;2022-07-01T01:50:53;0.40;;;0.40;;
4311;SDS011;2169;49.086;9.284;2022-07-01T01:53:20;0.60;;;0.43;;
4311;SDS011;2169;49.086;9.284;2022-07-01T01:55:48;0.60;;;0.60;;
4311;SDS011;2169;49.086;9.284;2022-07-01T01:58:15;9.20;;;0.60;;
4311;SDS011;2169;49.086;9.284;2022-07-01T02:00:42;2.00;;;0.50;;
4311;SDS011;2169;49.086;9.284;2022-07-01T02:03:09;0.50;;;0.50;;
4311;SDS011;2169;49.086;9.284;2022-07-01T02:05:35;0.73;;;0.53;;
4311;SDS011;2169;49.086;9.284;2022-07-01T02:08:03;0.60;;;0.50;;
4311;SDS011;2169;49.086;9.284;2022-07-01T02:10:30;0.50;;;0.50;;
4311;SDS011;2169;49.086;9.284;2022-07-01T02:12:58;0.80;;;0.60;;
4311;SDS011;2169;49.086;9.284;2022-07-01T02:15:25;0.50;;;0.50;;
4311;SDS011;2169;49.086;9.284;2022-07-01T02:17:52;0.60;;;0.60;;
4311;SDS011;2169;49.086;9.284;2022-07-01T02:20:21;0.60;;;0.60;;
4311;SDS011;2169;49.086;9.284;2022-07-01T02:22:48;0.70;;;0.57;;
4311;SDS011;2169;49.086;9.284;2022-07-01T02:25:17;0.50;;;0.50;;
4311;SDS011;2169;49.086;9.284;2022-07-01T02:27:44;2.77;;;0.50;;
4311;SDS011;2169;49.086;9.284;2022-07-01T02:30:13;2.43;;;0.53;;
4311;SDS011;2169;49.086;9.284;2022-07-01T02:32:40;0.77;;;0.73;;
4311;SDS011;2169;49.086;9.284;2022-07-01T02:35:08;1.13;;;1.13;;
4311;SDS011;2169;49.086;9.284;2022-07-01T02:37:35;1.57;;;0.73;;
4311;SDS011;2169;49.086;9.284;2022-07-01T02:40:03;0.40;;;0.40;;
4311;SDS011;2169;49.086;9.284;2022-07-01T02:42:30;1.23;;;0.67;;
4311;SDS011;2169;49.086;9.284;2022-07-01T02:45:00;0.90;;;0.60;;
4311;SDS011;2169;49.086;9.284;2022-07-01T02:47:33;2.30;;;0.70;;
4311;SDS011;2169;49.086;9.284;2022-07-01T02:50:00;0.60;;;0.60;;
4311;SDS011;2169;49.086;9.284;2022-07-01T02:52:27;0.97;;;0.63;;
4311;SDS011;2169;49.086;9.284;2022-07-01T02:54:54;2.50;;;0.50;;
4311;SDS011;2169;49.086;9.284;2022-07-01T02:57:21;0.40;;;0.40;;
4311;SDS011;2169;49.086;9.284;2022-07-01T02:59:48;0.50;;;0.50;;
4311;SDS011;2169;49.086;9.284;2022-07-01T03:02:16;0.80;;;0.60;;
4311;SDS011;2169;49.086;9.284;2022-07-01T03:04:45;2.13;;;0.90;;
4311;SDS011;2169;49.086;9.284;2022-07-01T03:07:12;5.50;;;0.60;;
4311;SDS011;2169;49.086;9.284;2022-07-01T03:09:39;0.50;;;0.50;;
4311;SDS011;2169;49.086;9.284;2022-07-01T03:12:06;0.90;;;0.60;;
4311;SDS011;2169;49.086;9.284;2022-07-01T03:14:47;0.60;;;0.60;;
4311;SDS011;2169;49.086;9.284;2022-07-01T03:17:14;0.90;;;0.63;;
4311;SDS011;2169;49.086;9.284;2022-07-01T03:19:41;0.70;;;0.50;;
4311;SDS011;2169;49.086;9.284;2022-07-01T03:22:09;0.50;;;0.50;;
4311;SDS011;2169;49.086;9.284;2022-07-01T03:24:36;0.50;;;0.50;;
4311;SDS011;2169;49.086;9.284;2022-07-01T03:27:03;0.50;;;0.50;;
4311;SDS011;2169;49.086;9.284;2022-07-01T03:29:30;0.60;;;0.50;;
4311;SDS011;2169;49.086;9.284;2022-07-01T03:31:57;1.90;;;0.70;;
4311;SDS011;2169;49.086;9.284;2022-07-01T03:34:24;1.23;;;0.60;;
4311;SDS011;2169;49.086;9.284;2022-07-01T03:36:50;7.73;;;0.67;;
4311;SDS011;2169;49.086;9.284;2022-07-01T03:39:19;0.60;;;0.60;;
4311;SDS011;2169;49.086;9.284;2022-07-01T03:41:46;0.50;;;0.50;;
4311;SDS011;2169;49.086;9.284;2022-07-01T03:44:13;0.73;;;0.73;;
4311;SDS011;2169;49.086;9.284;2022-07-01T03:46:39;1.00;;;0.70;;
4311;SDS011;2169;49.086;9.284;2022-07-01T03:49:06;0.70;;;0.70;;
4311;SDS011;2169;49.086;9.284;2022-07-01T03:51:33;1.90;;;0.57;;
4311;SDS011;2169;49.086;9.284;2022-07-01T03:54:00;0.77;;;0.77;;
4311;SDS011;2169;49.086;9.284;2022-07-01T03:56:46;0.60;;;0.60;;
4311;SDS011;2169;49.086;9.284;2022-07-01T03:59:12;2.43;;;0.67;;
4311;SDS011;2169;49.086;9.284;2022-07-01T04:01:39;0.60;;;0.60;;
4311;SDS011;2169;49.086;9.284;2022-07-01T04:04:06;8.17;;;1.30;;
4311;SDS011;2169;49.086;9.284;2022-07-01T04:06:33;0.60;;;0.60;;
4311;SDS011;2169;49.086;9.284;2022-07-01T04:09:00;0.67;;;0.67;;
4311;SDS011;2169;49.086;9.284;2022-07-01T04:11:27;1.30;;;0.77;;
4311;SDS011;2169;49.086;9.284;2022-07-01T04:13:56;0.80;;;0.80;;
4311;SDS011;2169;49.086;9.284;2022-07-01T04:16:22;1.47;;;1.00;;
4311;SDS011;2169;49.086;9.284;2022-07-01T04:18:51;0.70;;;0.70;;
4311;SDS011;2169;49.086;9.284;2022-07-01T04:21:19;0.90;;;0.87;;
4311;SDS011;2169;49.086;9.284;2022-07-01T04:24:03;1.20;;;1.03;;
4311;SDS011;2169;49.086;9.284;2022-07-01T04:26:30;2.70;;;1.20;;
4311;SDS011;2169;49.086;9.284;2022-07-01T04:28:59;0.93;;;0.80;;
4311;SDS011;2169;49.086;9.284;2022-07-01T04:31:25;0.93;;;0.93;;
4311;SDS011;2169;49.086;9.284;2022-07-01T04:33:53;0.90;;;0.90;;
4311;SDS011;2169;49.086;9.284;2022-07-01T04:36:20;2.00;;;1.00;;
4311;SDS011;2169;49.086;9.284;2022-07-01T04:38:47;1.30;;;1.20;;
4311;SDS011;2169;49.086;9.284;2022-07-01T04:41:14;0.70;;;0.70;;
4311;SDS011;2169;49.086;9.284;2022-07-01T04:43:59;1.53;;;1.00;;
4311;SDS011;2169;49.086;9.284;2022-07-01T04:46:26;0.90;;;0.90;;
4311;SDS011;2169;49.086;9.284;2022-07-01T04:48:53;1.23;;;1.07;;
4311;SDS011;2169;49.086;9.284;2022-07-01T04:51:20;6.43;;;2.10;;
4311;SDS011;2169;49.086;9.284;2022-07-01T04:53:47;1.10;;;0.90;;
4311;SDS011;2169;49.086;9.284;2022-07-01T04:56:14;1.70;;;1.60;;
4311;SDS011;2169;49.086;9.284;2022-07-01T04:58:41;4.00;;;1.10;;
4311;SDS011;2169;49.086;9.284;2022-07-01T05:01:09;1.73;;;1.33;;
4311;SDS011;2169;49.086;9.284;2022-07-01T05:03:36;1.27;;;1.17;;
4311;SDS011;2169;49.086;9.284;2022-07-01T05:06:03;1.20;;;1.20;;
4311;SDS011;2169;49.086;9.284;2022-07-01T05:08:31;0.90;;;0.90;;
4311;SDS011;2169;49.086;9.284;2022-07-01T05:10:58;0.93;;;0.93;;
4311;SDS011;2169;49.086;9.284;2022-07-01T05:13:24;0.90;;;0.90;;
4311;SDS011;2169;49.086;9.284;2022-07-01T05:15:51;2.10;;;1.03;;
4311;SDS011;2169;49.086;9.284;2022-07-01T05:18:19;3.77;;;1.43;;
4311;SDS011;2169;49.086;9.284;2022-07-01T05:21:03;2.43;;;1.00;;
4311;SDS011;2169;49.086;9.284;2022-07-01T05:23:47;1.57;;;1.17;;
4311;SDS011;2169;49.086;9.284;2022-07-01T05:26:14;1.63;;;1.10;;
4311;SDS011;2169;49.086;9.284;2022-07-01T05:28:42;1.30;;;1.20;;
4311;SDS011;2169;49.086;9.284;2022-07-01T05:31:09;1.10;;;1.00;;
4311;SDS011;2169;49.086;9.284;2022-07-01T05:33:37;1.20;;;1.10;;
4311;SDS011;2169;49.086;9.284;2022-07-01T05:36:04;1.67;;;1.57;;
4311;SDS011;2169;49.086;9.284;2022-07-01T05:38:32;18.87;;;2.00;;
4311;SDS011;2169;49.086;9.284;2022-07-01T05:40:58;1.93;;;1.30;;
4311;SDS011;2169;49.086;9.284;2022-07-01T05:43:25;2.87;;;1.13;;
4311;SDS011;2169;49.086;9.284;2022-07-01T05:45:52;2.97;;;1.40;;
4311;SDS011;2169;49.086;9.284;2022-07-01T05:48:19;1.30;;;1.20;;
4311;SDS011;2169;49.086;9.284;2022-07-01T05:50:47;2.43;;;1.13;;
4311;SDS011;2169;49.086;9.284;2022-07-01T05:53:14;1.27;;;1.17;;
4311;SDS011;2169;49.086;9.284;2022-07-01T05:55:41;1.10;;;1.10;;
4311;SDS011;2169;49.086;9.284;2022-07-01T05:58:08;1.43;;;1.23;;
4311;SDS011;2169;49.086;9.284;2022-07-01T06:00:36;1.20;;;1.10;;
4311;SDS011;2169;49.086;9.284;2022-07-01T06:03:06;1.87;;;1.77;;
4311;SDS011;2169;49.086;9.284;2022-07-01T06:05:33;6.50;;;2.13;;
4311;SDS011;2169;49.086;9.284;2022-07-01T06:08:01;2.60;;;2.40;;
4311;SDS011;2169;49.086;9.284;2022-07-01T06:10:28;1.63;;;1.10;;
4311;SDS011;2169;49.086;9.284;2022-07-01T06:12:55;3.87;;;1.20;;
4311;SDS011;2169;49.086;9.284;2022-07-01T06:15:22;2.03;;;1.53;;
4311;SDS011;2169;49.086;9.284;2022-07-01T06:17:49;2.40;;;1.57;;
4311;SDS011;2169;49.086;9.284;2022-07-01T06:20:17;4.87;;;2.50;;
4311;SDS011;2169;49.086;9.284;2022-07-01T06:22:44;1.53;;;1.47;;
4311;SDS011;2169;49.086;9.284;2022-07-01T06:25:12;4.30;;;1.30;;
4311;SDS011;2169;49.086;9.284;2022-07-01T06:27:39;1.97;;;1.87;;
4311;SDS011;2169;49.086;9.284;2022-07-01T06:30:07;4.03;;;1.80;;
4311;SDS011;2169;49.086;9.284;2022-07-01T06:32:35;1.93;;;1.83;;
4311;SDS011;2169;49.086;9.284;2022-07-01T06:35:02;2.27;;;1.10;;
4311;SDS011;2169;49.086;9.284;2022-07-01T06:37:29;2.80;;;1.73;;
4311;SDS011;2169;49.086;9.284;2022-07-01T06:39:58;2.80;;;1.40;;
4311;SDS011;2169;49.086;9.284;2022-07-01T06:42:27;3.00;;;1.77;;
4311;SDS011;2169;49.086;9.284;2022-07-01T06:44:53;2.50;;;1.97;;
4311;SDS011;2169;49.086;9.284;2022-07-01T06:47:20;5.53;;;2.43;;
4311;SDS011;2169;49.086;9.284;2022-07-01T06:49:47;2.20;;;2.00;;
4311;SDS011;2169;49.086;9.284;2022-07-01T06:52:14;2.60;;;1.97;;
4311;SDS011;2169;49.086;9.284;2022-07-01T06:54:40;9.50;;;1.80;;
4311;SDS011;2169;49.086;9.284;2022-07-01T06:57:07;3.60;;;1.47;;
4311;SDS011;2169;49.086;9.284;2022-07-01T06:59:35;1.60;;;1.50;;
4311;SDS011;2169;49.086;9.284;2022-07-01T07:02:02;1.40;;;1.30;;
4311;SDS011;2169;49.086;9.284;2022-07-01T07:04:32;1.80;;;1.70;;
4311;SDS011;2169;49.086;9.284;2022-07-01T07:06:59;1.43;;;1.33;;
4311;SDS011;2169;49.086;9.284;2022-07-01T07:09:25;1.63;;;1.40;;
4311;SDS011;2169;49.086;9.284;2022-07-01T07:11:52;1.90;;;1.80;;
4311;SDS011;2169;49.086;9.284;2022-07-01T07:14:19;1.70;;;1.60;;
4311;SDS011;2169;49.086;9.284;2022-07-01T07:16:48;2.03;;;1.93;;
4311;SDS011;2169;49.086;9.284;2022-07-01T07:19:16;2.13;;;1.90;;
4311;SDS011;2169;49.086;9.284;2022-07-01T07:21:43;2.00;;;1.83;;
4311;SDS011;2169;49.086;9.284;2022-07-01T07:24:09;5.90;;;1.87;;
4311;SDS011;2169;49.086;9.284;2022-07-01T07:26:36;2.13;;;2.00;;
4311;SDS011;2169;49.086;9.284;2022-07-01T07:29:03;2.30;;;2.20;;
4311;SDS011;2169;49.086;9.284;2022-07-01T07:31:30;2.37;;;1.67;;
4311;SDS011;2169;49.086;9.284;2022-07-01T07:33:58;1.07;;;1.07;;
4311;SDS011;2169;49.086;9.284;2022-07-01T07:36:24;2.50;;;2.17;;
4311;SDS011;2169;49.086;9.284;2022-07-01T07:38:51;1.33;;;1.20;;
4311;SDS011;2169;49.086;9.284;2022-07-01T07:41:18;1.83;;;1.73;;
4311;SDS011;2169;49.086;9.284;2022-07-01T07:43:45;1.63;;;1.57;;
4311;SDS011;2169;49.086;9.284;2022-07-01T07:46:13;3.80;;;1.37;;
4311;SDS011;2169;49.086;9.284;2022-07-01T07:48:39;2.47;;;1.77;;
4311;SDS011;2169;49.086;9.284;2022-07-01T07:51:09;1.00;;;1.00;;
4311;SDS011;2169;49.086;9.284;2022-07-01T07:53:39;1.73;;;1.63;;
4311;SDS011;2169;49.086;9.284;2022-07-01T07:56:06;1.20;;;1.20;;
4311;SDS011;2169;49.086;9.284;2022-07-01T07:58:33;1.50;;;1.37;;
4311;SDS011;2169;49.086;9.284;2022-07-01T08:00:59;1.70;;;1.60;;
4311;SDS011;2169;49.086;9.284;2022-07-01T08:03:26;1.60;;;1.20;;
4311;SDS011;2169;49.086;9.284;2022-07-01T08:05:53;1.70;;;0.90;;
4311;SDS011;2169;49.086;9.284;2022-07-01T08:08:22;2.03;;;1.53;;
4311;SDS011;2169;49.086;9.284;2022-07-01T08:10:48;1.20;;;1.17;;
4311;SDS011;2169;49.086;9.284;2022-07-01T08:13:15;1.47;;;1.37;;
4311;SDS011;2169;49.086;9.284;2022-07-01T08:15:42;2.67;;;2.00;;
4311;SDS011;2169;49.086;9.284;2022-07-01T08:18:09;1.83;;;1.60;;
4311;SDS011;2169;49.086;9.284;2022-07-01T08:20:35;6.13;;;1.90;;
4311;SDS011;2169;49.086;9.284;2022-07-01T08:23:02;1.07;;;1.07;;
4311;SDS011;2169;49.086;9.284;2022-07-01T08:25:30;1.50;;;1.40;;
4311;SDS011;2169;49.086;9.284;2022-07-01T08:27:57;1.43;;;1.10;;
4311;SDS011;2169;49.086;9.284;2022-07-01T08:30:24;1.63;;;1.40;;
4311;SDS011;2169;49.086;9.284;2022-07-01T08:32:51;1.43;;;1.33;;
4311;SDS011;2169;49.086;9.284;2022-07-01T08:35:17;2.27;;;1.57;;
4311;SDS011;2169;49.086;9.284;2022-07-01T08:37:44;2.73;;;1.47;;
4311;SDS011;2169;49.086;9.284;2022-07-01T08:40:11;1.43;;;1.33;;
4311;SDS011;2169;49.086;9.284;2022-07-01T08:42:39;5.13;;;1.20;;
4311;SDS011;2169;49.086;9.284;2022-07-01T08:45:08;1.00;;;1.00;;
4311;SDS011;2169;49.086;9.284;2022-07-01T08:47:48;1.33;;;1.23;;
4311;SDS011;2169;49.086;9.284;2022-07-01T08:50:16;0.90;;;0.90;;
4311;SDS011;2169;49.086;9.284;2022-07-01T08:52:42;2.10;;;1.03;;
4311;SDS011;2169;49.086;9.284;2022-07-01T08:55:09;0.80;;;0.80;;
4311;SDS011;2169;49.086;9.284;2022-07-01T08:57:36;1.10;;;0.90;;
4311;SDS011;2169;49.086;9.284;2022-07-01T09:00:05;1.17;;;0.80;;
4311;SDS011;2169;49.086;9.284;2022-07-01T09:02:48;1.77;;;1.20;;
4311;SDS011;2169;49.086;9.284;2022-07-01T09:05:20;2.60;;;0.80;;
4311;SDS011;2169;49.086;9.284;2022-07-01T09:07:47;1.90;;;1.33;;
4311;SDS011;2169;49.086;9.284;2022-07-01T09:10:15;2.50;;;1.67;;
4311;SDS011;2169;49.086;9.284;2022-07-01T09:12:44;0.97;;;0.97;;
4311;SDS011;2169;49.086;9.284;2022-07-01T09:15:26;4.87;;;1.50;;
4311;SDS011;2169;49.086;9.284;2022-07-01T09:17:55;2.47;;;1.57;;
4311;SDS011;2169;49.086;9.284;2022-07-01T09:20:23;1.40;;;1.13;;
4311;SDS011;2169;49.086;9.284;2022-07-01T09:23:04;1.93;;;1.73;;
4311;SDS011;2169;49.086;9.284;2022-07-01T09:25:34;1.70;;;1.17;;
4311;SDS011;2169;49.086;9.284;2022-07-01T09:28:08;1.40;;;1.30;;
4311;SDS011;2169;49.086;9.284;2022-07-01T09:30:39;2.07;;;1.43;;
4311;SDS011;2169;49.086;9.284;2022-07-01T09:33:12;2.40;;;0.93;;
4311;SDS011;2169;49.086;9.284;2022-07-01T09:35:40;1.50;;;1.40;;
4311;SDS011;2169;49.086;9.284;2022-07-01T09:38:10;1.87;;;1.77;;
4311;SDS011;2169;49.086;9.284;2022-07-01T09:40:51;1.57;;;1.47;;
4311;SDS011;2169;49.086;9.284;2022-07-01T09:43:20;1.60;;;1.50;;
4311;SDS011;2169;49.086;9.284;2022-07-01T09:45:51;2.20;;;2.10;;
4311;SDS011;2169;49.086;9.284;2022-07-01T09:48:20;1.47;;;1.37;;
4311;SDS011;2169;49.086;9.284;2022-07-01T09:50:46;1.30;;;1.20;;
4311;SDS011;2169;49.086;9.284;2022-07-01T09:53:13;3.40;;;2.60;;
4311;SDS011;2169;49.086;9.284;2022-07-01T09:55:41;1.67;;;1.57;;
4311;SDS011;2169;49.086;9.284;2022-07-01T09:58:07;2.87;;;2.60;;
4311;SDS011;2169;49.086;9.284;2022-07-01T10:00:35;2.40;;;2.20;;
4311;SDS011;2169;49.086;9.284;2022-07-01T10:03:05;3.07;;;1.40;;
4311;SDS011;2169;49.086;9.284;2022-07-01T10:05:36;2.93;;;1.77;;
4311;SDS011;2169;49.086;9.284;2022-07-01T10:08:10;2.63;;;2.23;;
4311;SDS011;2169;49.086;9.284;2022-07-01T10:10:48;6.10;;;2.00;;
4311;SDS011;2169;49.086;9.284;2022-07-01T10:13:21;5.20;;;1.53;;
4311;SDS011;2169;49.086;9.284;2022-07-01T10:15:51;4.30;;;2.50;;
4311;SDS011;2169;49.086;9.284;2022-07-01T10:18:21;6.90;;;1.87;;
4311;SDS011;2169;49.086;9.284;2022-07-01T10:20:49;1.83;;;1.70;;
4311;SDS011;2169;49.086;9.284;2022-07-01T10:23:17;3.50;;;1.47;;
4311;SDS011;2169;49.086;9.284;2022-07-01T10:25:47;3.13;;;1.87;;
4311;SDS011;2169;49.086;9.284;2022-07-01T10:28:22;1.67;;;1.57;;
4311;SDS011;2169;49.086;9.284;2022-07-01T10:30:53;1.27;;;1.27;;
4311;SDS011;2169;49.086;9.284;2022-07-01T10:33:33;1.90;;;1.80;;
4311;SDS011;2169;49.086;9.284;2022-07-01T10:36:09;3.30;;;1.80;;
4311;SDS011;2169;49.086;9.284;2022-07-01T10:41:59;1.30;;;1.23;;
4311;SDS011;2169;49.086;9.284;2022-07-01T10:44:30;2.43;;;1.57;;
4311;SDS011;2169;49.086;9.284;2022-07-01T10:47:02;1.33;;;1.13;;
4311;SDS011;2169;49.086;9.284;2022-07-01T10:52:19;3.00;;;1.77;;
4311;SDS011;2169;49.086;9.284;2022-07-01T10:54:46;1.80;;;1.70;;
4311;SDS011;2169;49.086;9.284;2022-07-01T10:57:21;2.50;;;1.73;;
4311;SDS011;2169;49.086;9.284;2022-07-01T10:59:52;1.20;;;1.10;;
4311;SDS011;2169;49.086;9.284;2022-07-01T11:02:20;1.13;;;1.13;;
4311;SDS011;2169;49.086;9.284;2022-07-01T11:04:49;1.00;;;1.00;;
4311;SDS011;2169;49.086;9.284;2022-07-01T11:07:19;0.73;;;0.73;;
4311;SDS011;2169;49.086;9.284;2022-07-01T11:09:46;1.47;;;1.37;;
4311;SDS011;2169;49.086;9.284;2022-07-01T11:12:14;0.97;;;0.97;;
4311;SDS011;2169;49.086;9.284;2022-07-01T11:14:42;3.50;;;0.97;;
4311;SDS011;2169;49.086;9.284;2022-07-01T11:17:09;0.80;;;0.80;;
4311;SDS011;2169;49.086;9.284;2022-07-01T11:19:36;1.53;;;1.30;;
4311;SDS011;2169;49.086;9.284;2022-07-01T11:22:04;1.00;;;0.93;;
4311;SDS011;2169;49.086;9.284;2022-07-01T11:24:31;0.60;;;0.60;;
4311;SDS011;2169;49.086;9.284;2022-07-01T11:26:59;0.80;;;0.80;;
4311;SDS011;2169;49.086;9.284;2022-07-01T11:29:27;0.90;;;0.90;;
4311;SDS011;2169;49.086;9.284;2022-07-01T11:31:54;0.80;;;0.80;;
4311;SDS011;2169;49.086;9.284;2022-07-01T11:34:21;1.20;;;1.10;;
4311;SDS011;2169;49.086;9.284;2022-07-01T11:36:48;2.00;;;1.73;;
4311;SDS011;2169;49.086;9.284;2022-07-01T11:39:34;0.90;;;0.90;;
4311;SDS011;2169;49.086;9.284;2022-07-01T11:42:02;4.23;;;1.73;;
4311;SDS011;2169;49.086;9.284;2022-07-01T11:44:32;0.90;;;0.90;;
4311;SDS011;2169;49.086;9.284;2022-07-01T11:47:00;0.90;;;0.90;;
4311;SDS011;2169;49.086;9.284;2022-07-01T11:49:28;1.90;;;0.90;;
4311;SDS011;2169;49.086;9.284;2022-07-01T11:51:55;1.00;;;0.80;;
4311;SDS011;2169;49.086;9.284;2022-07-01T11:54:23;3.23;;;0.97;;
4311;SDS011;2169;49.086;9.284;2022-07-01T11:56:52;0.83;;;0.80;;
4311;SDS011;2169;49.086;9.284;2022-07-01T11:59:19;0.70;;;0.70;;
4311;SDS011;2169;49.086;9.284;2022-07-01T12:01:52;0.93;;;0.90;;
4311;SDS011;2169;49.086;9.284;2022-07-01T12:04:20;1.07;;;1.07;;
4311;SDS011;2169;49.086;9.284;2022-07-01T12:06:47;1.27;;;1.17;;
4311;SDS011;2169;49.086;9.284;2022-07-01T12:09:16;2.87;;;0.97;;
4311;SDS011;2169;49.086;9.284;2022-07-01T12:11:45;0.70;;;0.70;;
4311;SDS011;2169;49.086;9.284;2022-07-01T12:14:19;1.23;;;1.03;;
4311;SDS011;2169;49.086;9.284;2022-07-01T12:16:47;0.60;;;0.60;;
4311;SDS011;2169;49.086;9.284;2022-07-01T12:19:16;7.13;;;2.07;;
4311;SDS011;2169;49.086;9.284;2022-07-01T12:21:47;1.90;;;0.83;;
4311;SDS011;2169;49.086;9.284;2022-07-01T12:24:15;2.00;;;0.90;;
4311;SDS011;2169;49.086;9.284;2022-07-01T12:26:47;1.00;;;1.00;;
4311;SDS011;2169;49.086;9.284;2022-07-01T12:29:15;2.70;;;1.20;;
4311;SDS011;2169;49.086;9.284;2022-07-01T12:31:44;7.43;;;1.10;;
4311;SDS011;2169;49.086;9.284;2022-07-01T12:34:21;0.90;;;0.90;;
4311;SDS011;2169;49.086;9.284;2022-07-01T12:36:48;1.53;;;1.17;;
4311;SDS011;2169;49.086;9.284;2022-07-01T12:39:15;4.40;;;1.30;;
4311;SDS011;2169;49.086;9.284;2022-07-01T12:41:48;0.90;;;0.90;;
4311;SDS011;2169;49.086;9.284;2022-07-01T12:44:20;1.13;;;0.97;;
4311;SDS011;2169;49.086;9.284;2022-07-01T12:46:49;1.70;;;1.00;;
4311;SDS011;2169;49.086;9.284;2022-07-01T12:49:20;1.90;;;0.80;;
4311;SDS011;2169;49.086;9.284;2022-07-01T12:51:47;1.40;;;1.30;;
4311;SDS011;2169;49.086;9.284;2022-07-01T12:54:28;4.20;;;1.60;;
4311;SDS011;2169;49.086;9.284;2022-07-01T12:56:55;1.10;;;0.90;;
4311;SDS011;2169;49.086;9.284;2022-07-01T12:59:22;1.10;;;1.00;;
4311;SDS011;2169;49.086;9.284;2022-07-01T13:01:50;1.20;;;1.13;;
4311;SDS011;2169;49.086;9.284;2022-07-01T13:04:22;1.00;;;1.00;;
4311;SDS011;2169;49.086;9.284;2022-07-01T13:06:50;1.33;;;1.30;;
4311;SDS011;2169;49.086;9.284;2022-07-01T13:09:16;1.30;;;1.13;;
4311;SDS011;2169;49.086;9.284;2022-07-01T13:11:43;1.50;;;1.40;;
4311;SDS011;2169;49.086;9.284;2022-07-01T13:14:10;1.20;;;1.20;;
4311;SDS011;2169;49.086;9.284;2022-07-01T13:16:38;1.00;;;1.00;;
4311;SDS011;2169;49.086;9.284;2022-07-01T13:19:06;2.40;;;1.33;;
4311;SDS011;2169;49.086;9.284;2022-07-01T13:21:32;0.90;;;0.90;;
4311;SDS011;2169;49.086;9.284;2022-07-01T13:23:59;1.00;;;1.00;;
4311;SDS011;2169;49.086;9.284;2022-07-01T13:26:26;6.50;;;1.30;;
4311;SDS011;2169;49.086;9.284;2022-07-01T13:28:53;2.17;;;1.40;;
4311;SDS011;2169;49.086;9.284;2022-07-01T13:31:19;5.13;;;1.30;;
4311;SDS011;2169;49.086;9.284;2022-07-01T13:33:46;1.00;;;1.00;;
4311;SDS011;2169;49.086;9.284;2022-07-01T13:36:14;1.27;;;1.27;;
4311;SDS011;2169;49.086;9.284;2022-07-01T13:38:41;2.03;;;1.93;;
4311;SDS011;2169;49.086;9.284;2022-07-01T13:41:09;1.10;;;1.10;;
4311;SDS011;2169;49.086;9.284;2022-07-01T13:43:36;1.10;;;1.00;;
4311;SDS011;2169;49.086;9.284;2022-07-01T13:46:03;1.83;;;1.07;;
4311;SDS011;2169;49.086;9.284;2022-07-01T13:48:29;0.73;;;0.73;;
4311;SDS011;2169;49.086;9.284;2022-07-01T13:50:56;1.10;;;1.00;;
4311;SDS011;2169;49.086;9.284;2022-07-01T13:53:25;1.53;;;1.07;;
4311;SDS011;2169;49.086;9.284;2022-07-01T13:55:51;1.10;;;1.10;;
4311;SDS011;2169;49.086;9.284;2022-07-01T13:58:18;1.33;;;1.23;;
4311;SDS011;2169;49.086;9.284;2022-07-01T14:00:45;1.03;;;1.03;;
4311;SDS011;2169;49.086;9.284;2022-07-01T14:03:12;1.00;;;1.00;;
4311;SDS011;2169;49.086;9.284;2022-07-01T14:05:38;4.30;;;1.10;;
4311;SDS011;2169;49.086;9.284;2022-07-01T14:08:05;1.50;;;1.03;;
4311;SDS011;2169;49.086;9.284;2022-07-01T14:10:33;1.37;;;1.00;;
4311;SDS011;2169;49.086;9.284;2022-07-01T14:13:02;5.53;;;1.73;;
4311;SDS011;2169;49.086;9.284;2022-07-01T14:15:29;2.80;;;1.00;;
4311;SDS011;2169;49.086;9.284;2022-07-01T14:17:56;1.37;;;1.00;;
4311;SDS011;2169;49.086;9.284;2022-07-01T14:20:23;1.30;;;1.20;;
4311;SDS011;2169;49.086;9.284;2022-07-01T14:22:50;0.90;;;0.90;;
4311;SDS011;2169;49.086;9.284;2022-07-01T14:25:18;1.00;;;1.00;;
4311;SDS011;2169;49.086;9.284;2022-07-01T14:27:47;3.23;;;1.33;;
4311;SDS011;2169;49.086;9.284;2022-07-01T14:30:15;2.57;;;2.47;;
4311;SDS011;2169;49.086;9.284;2022-07-01T14:32:42;1.57;;;1.47;;
4311;SDS011;2169;49.086;9.284;2022-07-01T14:35:09;1.50;;;1.40;;
4311;SDS011;2169;49.086;9.284;2022-07-01T14:37:36;2.50;;;0.80;;
4311;SDS011;2169;49.086;9.284;2022-07-01T14:40:05;1.47;;;1.20;;
4311;SDS011;2169;49.086;9.284;2022-07-01T14:42:32;2.43;;;1.50;;
4311;SDS011;2169;49.086;9.284;2022-07-01T14:45:00;0.83;;;0.83;;
4311;SDS011;2169;49.086;9.284;2022-07-01T14:47:28;1.20;;;1.20;;
4311;SDS011;2169;49.086;9.284;2022-07-01T14:49:55;6.10;;;1.10;;
4311;SDS011;2169;49.086;9.284;2022-07-01T14:52:22;1.30;;;1.20;;
4311;SDS011;2169;49.086;9.284;2022-07-01T14:54:50;0.80;;;0.80;;
4311;SDS011;2169;49.086;9.284;2022-07-01T14:57:17;1.37;;;0.80;;
4311;SDS011;2169;49.086;9.284;2022-07-01T14:59:44;0.97;;;0.97;;
4311;SDS011;2169;49.086;9.284;2022-07-01T15:02:13;1.93;;;0.80;;
4311;SDS011;2169;49.086;9.284;2022-07-01T15:04:40;1.87;;;1.33;;
4311;SDS011;2169;49.086;9.284;2022-07-01T15:07:07;5.30;;;0.90;;
4311;SDS011;2169;49.086;9.284;2022-07-01T15:09:34;0.77;;;0.77;;
4311;SDS011;2169;49.086;9.284;2022-07-01T15:12:01;2.77;;;0.80;;
4311;SDS011;2169;49.086;9.284;2022-07-01T15:14:27;1.20;;;1.20;;
4311;SDS011;2169;49.086;9.284;2022-07-01T15:16:55;2.47;;;0.80;;
4311;SDS011;2169;49.086;9.284;2022-07-01T15:19:24;0.93;;;0.80;;
4311;SDS011;2169;49.086;9.284;2022-07-01T15:21:51;5.33;;;0.70;;
4311;SDS011;2169;49.086;9.284;2022-07-01T15:24:18;0.90;;;0.90;;
4311;SDS011;2169;49.086;9.284;2022-07-01T15:26:45;1.00;;;1.00;;